Time;durP1;ratioP1;P1;durP2;ratioP2;P2;SDS_P1;SDS_P2;PMS_P1;PMS_P2;Temp;Humidity;BMP_temperature;BMP_pressure;BME280_temperature;BME280_humidity;BME280_pressure;Samples;Min_cycle;Max_cycle;Signal;HPM_P1;HPM_P2
2023/01/22 00:00:35;;;;;;;19.05;12.90;;;20.80;63.10;;;;;;5091557;28;20463;-75
2023/01/22 00:03:01;;;;;;;22.42;12.85;;;20.60;63.10;;;;;;5091546;28;20492;-75
2023/01/22 00:05:27;;;;;;;23.02;13.70;;;20.60;63.00;;;;;;5091420;28;20067;-75
2023/01/22 00:07:53;;;;;;;18.83;12.90;;;20.60;62.90;;;;;;5090943;28;20063;-76
2023/01/22 00:10:19;;;;;;;23.10;15.27;;;20.60;62.80;;;;;;5091414;28;20674;-75
2023/01/22 00:12:45;;;;;;;23.30;14.90;;;20.70;62.90;;;;;;5091493;28;20036;-75
2023/01/22 00:15:11;;;;;;;24.92;14.68;;;20.60;62.60;;;;;;5090932;28;20496;-76
2023/01/22 00:17:37;;;;;;;22.98;15.10;;;20.70;62.60;;;;;;5090952;28;20371;-75
2023/01/22 00:20:05;;;;;;;23.05;14.60;;;20.70;62.50;;;;;;5092564;28;20032;-75
2023/01/22 00:22:31;;;;;;;24.52;15.02;;;20.70;62.40;;;;;;5095399;28;20104;-75
2023/01/22 00:24:57;;;;;;;24.27;13.95;;;20.60;62.20;;;;;;5095598;28;20457;-75
2023/01/22 00:27:23;;;;;;;20.95;13.75;;;20.70;62.20;;;;;;5095399;28;20036;-75
2023/01/22 00:29:49;;;;;;;20.58;13.02;;;20.70;62.30;;;;;;5093988;28;20040;-76
2023/01/22 00:32:15;;;;;;;23.27;14.30;;;20.70;62.30;;;;;;5093923;28;20039;-75
2023/01/22 00:34:43;;;;;;;20.33;14.30;;;20.60;62.00;;;;;;5093836;28;20044;-75
2023/01/22 00:37:09;;;;;;;24.65;14.43;;;20.70;62.10;;;;;;5095111;28;20028;-75
2023/01/22 00:39:35;;;;;;;24.23;15.07;;;20.70;61.90;;;;;;5076005;28;20047;-75
2023/01/22 00:42:01;;;;;;;30.38;15.45;;;20.70;61.90;;;;;;5094979;28;20508;-76
2023/01/22 00:44:27;;;;;;;21.48;14.13;;;20.70;61.70;;;;;;5094991;28;20036;-75
2023/01/22 00:46:53;;;;;;;23.55;14.40;;;20.80;61.60;;;;;;5095029;28;20039;-75
2023/01/22 00:49:19;;;;;;;27.88;14.60;;;20.90;61.70;;;;;;5095086;28;20101;-74
2023/01/22 00:51:45;;;;;;;25.17;15.52;;;20.80;61.60;;;;;;5094943;28;20089;-76
2023/01/22 00:54:11;;;;;;;23.13;15.40;;;20.80;61.50;;;;;;5094788;28;20479;-75
2023/01/22 00:56:37;;;;;;;26.48;15.30;;;20.80;61.40;;;;;;5093318;28;20032;-75
2023/01/22 00:59:09;;;;;;;25.88;15.02;;;20.70;61.40;;;;;;5094728;28;20028;-76
2023/01/22 01:01:38;;;;;;;22.20;14.07;;;20.70;61.40;;;;;;5093509;28;20081;-74
2023/01/22 01:04:04;;;;;;;22.15;14.32;;;20.60;61.30;;;;;;5093282;28;20028;-76
2023/01/22 01:06:31;;;;;;;22.15;13.77;;;20.60;61.50;;;;;;5093157;28;20477;-75
2023/01/22 01:08:58;;;;;;;23.63;14.15;;;20.70;61.50;;;;;;5094378;28;20091;-75
2023/01/22 01:11:26;;;;;;;22.83;14.15;;;20.60;61.40;;;;;;5093441;28;20032;-75
2023/01/22 01:13:52;;;;;;;25.58;14.50;;;20.60;61.50;;;;;;5094413;28;20118;-74
2023/01/22 01:16:28;;;;;;;22.55;14.48;;;20.50;61.50;;;;;;5094383;28;20051;-75
2023/01/22 01:19:05;;;;;;;23.90;13.73;;;20.50;61.50;;;;;;5093048;28;20032;-75
2023/01/22 01:21:32;;;;;;;27.35;14.95;;;20.60;61.50;;;;;;5076407;28;20036;-76
2023/01/22 01:23:59;;;;;;;23.67;14.98;;;20.60;61.50;;;;;;5093132;28;20118;-76
2023/01/22 01:26:25;;;;;;;27.13;16.08;;;20.50;61.50;;;;;;5093812;28;20086;-75
2023/01/22 01:28:52;;;;;;;31.08;16.17;;;20.50;61.40;;;;;;5093628;28;20107;-76
2023/01/22 01:31:19;;;;;;;19.52;13.30;;;20.60;61.30;;;;;;5091875;28;20077;-76
2023/01/22 01:33:45;;;;;;;20.10;11.20;;;20.50;61.20;;;;;;5075661;28;20047;-75
2023/01/22 01:36:16;;;;;;;16.55;11.55;;;20.60;61.10;;;;;;5092847;28;20032;-75
2023/01/22 01:38:42;;;;;;;17.70;9.60;;;20.60;60.80;;;;;;5092520;28;20032;-75
2023/01/22 01:41:12;;;;;;;17.88;10.98;;;20.60;60.70;;;;;;5092676;28;20044;-76
2023/01/22 01:43:38;;;;;;;16.17;11.05;;;20.60;60.60;;;;;;5092604;28;20060;-76
2023/01/22 01:46:28;;;;;;;18.73;12.55;;;20.60;60.70;;;;;;5093497;28;20067;-75
2023/01/22 01:48:54;;;;;;;15.18;10.30;;;20.60;60.90;;;;;;5092460;28;20480;-77
2023/01/22 01:51:34;;;;;;;14.73;9.90;;;20.50;60.90;;;;;;5093743;28;20031;-76
2023/01/22 01:54:03;;;;;;;14.75;10.30;;;20.50;60.80;;;;;;5093818;28;20043;-76
2023/01/22 01:56:43;;;;;;;14.50;10.20;;;20.60;60.70;;;;;;5093704;28;20039;-76
2023/01/22 01:59:13;;;;;;;17.70;10.88;;;20.50;60.60;;;;;;5092357;28;20032;-75
2023/01/22 02:01:39;;;;;;;16.73;10.05;;;20.70;60.70;;;;;;5092145;28;20465;-75
2023/01/22 02:04:06;;;;;;;15.07;10.88;;;20.50;60.50;;;;;;5092434;28;20024;-76
2023/01/22 02:06:32;;;;;;;15.30;10.43;;;20.60;60.50;;;;;;5093033;28;20044;-75
2023/01/22 02:08:59;;;;;;;15.00;9.73;;;20.60;60.40;;;;;;5092102;28;20077;-75
2023/01/22 02:11:28;;;;;;;16.05;9.77;;;20.70;60.40;;;;;;5093345;28;20031;-75
2023/01/22 02:14:03;;;;;;;19.15;10.55;;;20.80;60.30;;;;;;5093227;28;20385;-76
2023/01/22 02:16:30;;;;;;;14.15;10.15;;;20.60;60.20;;;;;;5092901;28;20036;-76
2023/01/22 02:18:55;;;;;;;16.42;10.10;;;20.70;60.20;;;;;;5092048;28;20032;-75
2023/01/22 02:21:32;;;;;;;13.68;8.88;;;20.60;60.20;;;;;;5092885;28;20362;-75
2023/01/22 02:23:59;;;;;;;13.18;9.35;;;20.60;60.30;;;;;;5092138;28;20403;-75
2023/01/22 02:26:27;;;;;;;17.13;9.95;;;20.50;60.50;;;;;;5091875;28;20040;-75
2023/01/22 02:28:53;;;;;;;15.80;10.23;;;20.50;60.60;;;;;;5093091;28;20032;-76
2023/01/22 02:31:21;;;;;;;13.23;10.10;;;20.60;60.50;;;;;;5091616;28;20035;-75
2023/01/22 02:33:48;;;;;;;15.23;10.25;;;20.50;60.50;;;;;;5091731;28;20028;-75
2023/01/22 02:36:15;;;;;;;13.25;9.27;;;20.40;60.50;;;;;;5126015;27;20036;-75
2023/01/22 02:38:41;;;;;;;15.18;10.80;;;20.50;60.60;;;;;;5091484;28;20039;-75
2023/01/22 02:41:08;;;;;;;15.43;9.82;;;20.40;60.50;;;;;;5091656;28;20027;-75
2023/01/22 02:43:34;;;;;;;15.32;9.75;;;20.30;60.60;;;;;;5090592;28;20032;-75
2023/01/22 02:46:01;;;;;;;13.57;9.75;;;20.30;60.60;;;;;;5073386;28;20040;-76
2023/01/22 02:48:27;;;;;;;12.82;9.57;;;20.40;60.60;;;;;;5091528;28;20036;-75
2023/01/22 02:50:53;;;;;;;15.43;9.00;;;20.30;60.60;;;;;;5092670;28;20043;-75
2023/01/22 02:53:19;;;;;;;18.55;9.55;;;20.30;60.60;;;;;;5091219;28;20032;-75
2023/01/22 02:55:48;;;;;;;15.15;10.18;;;20.30;60.70;;;;;;5073544;28;20214;-75
2023/01/22 02:58:16;;;;;;;15.05;9.35;;;20.30;60.60;;;;;;5091299;28;20032;-75
2023/01/22 03:00:43;;;;;;;20.17;11.00;;;20.30;60.60;;;;;;5040133;28;20040;-75
2023/01/22 03:03:14;;;;;;;18.58;10.68;;;20.30;60.60;;;;;;5091144;28;20107;-75
2023/01/22 03:05:51;;;;;;;16.40;11.60;;;20.30;60.50;;;;;;5090962;28;20024;-75
2023/01/22 03:08:18;;;;;;;17.55;10.85;;;20.20;60.40;;;;;;5090855;28;20113;-75
2023/01/22 03:10:45;;;;;;;15.15;10.73;;;20.30;60.40;;;;;;5092256;28;20484;-75
2023/01/22 03:21:26;;;;;;;16.90;11.52;;;20.30;59.90;;;;;;5090949;28;20631;-75
2023/01/22 03:23:54;;;;;;;15.27;10.65;;;20.40;59.80;;;;;;5090746;28;20043;-75
2023/01/22 03:26:22;;;;;;;17.92;11.50;;;20.40;59.70;;;;;;5090862;28;20075;-75
2023/01/22 03:28:48;;;;;;;16.40;10.52;;;20.40;59.60;;;;;;5090716;28;20039;-75
2023/01/22 03:31:16;;;;;;;17.58;11.63;;;20.50;59.60;;;;;;5090858;28;20161;-75
2023/01/22 03:33:43;;;;;;;20.73;12.63;;;20.50;59.60;;;;;;5091505;28;20032;-75
2023/01/22 03:36:11;;;;;;;16.38;11.00;;;20.60;59.40;;;;;;5090242;28;20511;-75
2023/01/22 03:38:43;;;;;;;15.57;10.90;;;20.60;59.20;;;;;;5090423;28;20488;-75
2023/01/22 03:41:15;;;;;;;18.42;11.60;;;20.70;59.30;;;;;;5091663;28;20032;-75
2023/01/22 03:43:44;;;;;;;14.45;10.20;;;20.60;59.10;;;;;;5090460;28;20114;-75
2023/01/22 03:46:18;;;;;;;18.17;10.68;;;20.60;59.10;;;;;;5090346;28;20036;-75
2023/01/22 03:48:50;;;;;;;20.73;11.95;;;20.60;59.10;;;;;;5090239;28;20350;-74
2023/01/22 03:51:17;;;;;;;19.25;12.57;;;20.70;59.10;;;;;;5090019;28;20043;-75
2023/01/22 03:53:44;;;;;;;16.63;11.77;;;20.60;59.00;;;;;;5089355;28;20024;-75
2023/01/22 03:56:13;;;;;;;21.77;13.63;;;20.70;59.00;;;;;;5054895;28;20040;-75
2023/01/22 03:58:40;;;;;;;19.67;12.90;;;20.70;59.00;;;;;;5091286;28;20039;-74
2023/01/22 04:01:12;;;;;;;18.02;12.48;;;20.60;58.90;;;;;;5091316;28;20066;-74
2023/01/22 04:03:39;;;;;;;23.83;13.07;;;20.70;58.90;;;;;;5090251;28;20030;-74
2023/01/22 04:06:07;;;;;;;17.38;11.82;;;20.80;58.80;;;;;;5072085;28;20212;-76
2023/01/22 04:08:35;;;;;;;18.50;13.98;;;20.70;58.80;;;;;;5089731;28;20052;-74
2023/01/22 04:11:02;;;;;;;21.77;13.35;;;20.80;58.80;;;;;;5088860;28;20063;-75
2023/01/22 04:13:30;;;;;;;20.15;13.10;;;20.80;58.70;;;;;;5090054;28;20036;-75
2023/01/22 04:15:56;;;;;;;21.00;13.60;;;20.70;58.70;;;;;;5090017;28;20036;-76
2023/01/22 04:18:41;;;;;;;20.75;13.27;;;20.90;58.70;;;;;;5075006;28;20040;-74
2023/01/22 04:21:23;;;;;;;22.42;13.57;;;20.80;58.70;;;;;;5089981;28;20112;-75
2023/01/22 04:23:55;;;;;;;21.50;14.80;;;20.80;58.60;;;;;;5068501;28;20072;-75
2023/01/22 04:26:21;;;;;;;17.27;12.93;;;20.80;58.50;;;;;;5068383;28;20528;-75
2023/01/22 04:28:48;;;;;;;19.25;13.60;;;20.80;58.50;;;;;;5051641;28;20052;-75
2023/01/22 04:31:14;;;;;;;19.92;13.30;;;20.70;58.50;;;;;;5035235;28;20473;-76
2023/01/22 04:33:48;;;;;;;20.58;12.93;;;20.80;58.50;;;;;;5051620;28;20075;-76
2023/01/22 04:36:21;;;;;;;16.88;12.30;;;20.80;58.50;;;;;;5051650;28;20574;-76
2023/01/22 04:38:47;;;;;;;22.02;12.57;;;20.70;58.50;;;;;;5051607;28;20060;-75
2023/01/22 04:41:13;;;;;;;18.75;12.93;;;20.60;58.50;;;;;;5051689;28;20112;-76
2023/01/22 04:43:39;;;;;;;21.05;13.10;;;20.60;58.60;;;;;;5068372;28;20517;-76
2023/01/22 04:46:05;;;;;;;19.30;12.70;;;20.70;58.70;;;;;;5068182;28;20021;-76
2023/01/22 04:48:32;;;;;;;19.90;13.32;;;20.60;58.60;;;;;;5051511;28;20493;-73
2023/01/22 04:50:59;;;;;;;17.92;12.60;;;20.60;58.60;;;;;;5068532;28;20052;-75
2023/01/22 04:53:28;;;;;;;15.98;9.77;;;20.60;58.50;;;;;;5035660;28;20043;-74
2023/01/22 04:55:54;;;;;;;15.82;10.27;;;20.80;58.90;;;;;;5066360;28;20053;-76
2023/01/22 04:58:21;;;;;;;14.77;9.23;;;20.80;58.20;;;;;;5051345;28;20099;-75
2023/01/22 05:00:47;;;;;;;15.13;10.18;;;20.90;58.10;;;;;;5068393;28;20029;-74
2023/01/22 05:03:14;;;;;;;20.30;13.13;;;21.00;57.90;;;;;;5051412;28;20120;-74
2023/01/22 05:05:41;;;;;;;23.25;13.30;;;21.00;57.80;;;;;;5051503;28;20080;-75
2023/01/22 05:08:07;;;;;;;24.67;15.02;;;21.10;57.80;;;;;;5054265;28;20057;-74
2023/01/22 05:10:35;;;;;;;20.83;12.98;;;21.20;57.50;;;;;;5071310;28;20106;-74
2023/01/22 05:13:05;;;;;;;19.60;13.25;;;21.30;57.60;;;;;;5054452;28;20040;-73
2023/01/22 05:15:32;;;;;;;22.27;12.80;;;21.30;57.30;;;;;;5054669;28;20049;-76
2023/01/22 05:18:03;;;;;;;15.35;11.52;;;21.40;60.40;;;;;;5054324;28;20040;-74
2023/01/22 05:20:33;;;;;;;14.25;11.00;;;21.80;61.00;;;;;;5088264;28;20120;-73
2023/01/22 05:22:59;;;;;;;18.80;11.73;;;22.10;63.00;;;;;;5088764;28;20041;-75
2023/01/22 05:25:26;;;;;;;15.73;10.77;;;22.20;60.80;;;;;;5054172;28;20025;-77
2023/01/22 05:27:52;;;;;;;17.67;11.80;;;22.30;57.00;;;;;;5088761;28;20040;-76
2023/01/22 05:30:32;;;;;;;15.98;11.57;;;22.20;54.50;;;;;;5092703;28;20040;-74
2023/01/22 05:33:15;;;;;;;20.50;12.07;;;22.00;53.90;;;;;;5092856;28;20032;-76
2023/01/22 05:35:41;;;;;;;16.27;11.73;;;21.90;53.90;;;;;;5092957;28;20024;-74
2023/01/22 05:38:07;;;;;;;20.88;13.57;;;21.70;54.60;;;;;;5070873;28;20038;-74
2023/01/22 05:40:33;;;;;;;15.23;10.18;;;21.70;55.10;;;;;;5071173;28;20044;-74
2023/01/22 05:43:02;;;;;;;15.70;11.15;;;21.60;56.20;;;;;;5054403;28;20694;-74
2023/01/22 05:45:28;;;;;;;18.50;12.43;;;21.50;56.70;;;;;;5070927;28;20063;-74
2023/01/22 05:48:14;;;;;;;19.98;11.30;;;21.60;57.30;;;;;;5069477;28;20045;-74
2023/01/22 05:50:51;;;;;;;22.13;10.98;;;21.50;57.80;;;;;;5070969;28;20130;-74
2023/01/22 05:53:17;;;;;;;15.90;9.40;;;21.50;58.10;;;;;;5054395;28;20118;-74
2023/01/22 05:55:43;;;;;;;13.70;9.75;;;21.50;58.30;;;;;;5071014;28;20127;-74
2023/01/22 05:58:09;;;;;;;13.93;10.05;;;21.70;57.80;;;;;;5054161;28;20056;-75
2023/01/22 06:00:35;;;;;;;15.45;11.25;;;21.80;57.10;;;;;;5054043;28;20201;-75
2023/01/22 06:03:04;;;;;;;14.05;10.30;;;21.70;53.70;;;;;;5053952;28;20174;-76
2023/01/22 06:05:41;;;;;;;15.65;9.73;;;21.70;52.20;;;;;;5070285;28;20028;-76
2023/01/22 06:08:07;;;;;;;14.70;10.10;;;21.70;51.90;;;;;;5055268;28;20057;-80
2023/01/22 06:10:41;;;;;;;11.13;9.07;;;21.70;51.50;;;;;;5091531;28;20028;-78
2023/01/22 06:13:06;;;;;;;14.55;8.98;;;21.80;50.90;;;;;;5091890;28;20101;-81
2023/01/22 06:15:33;;;;;;;14.60;9.73;;;21.90;52.50;;;;;;5091947;28;20028;-78
2023/01/22 06:18:11;;;;;;;12.07;8.43;;;21.90;51.90;;;;;;5091868;28;20117;-79
2023/01/22 06:20:37;;;;;;;10.98;8.05;;;22.00;51.80;;;;;;5091819;28;20036;-77
2023/01/22 06:23:06;;;;;;;12.10;7.97;;;22.00;52.80;;;;;;5075780;28;20031;-79
2023/01/22 06:25:32;;;;;;;10.40;8.32;;;21.90;51.70;;;;;;5091740;28;20032;-77
2023/01/22 06:28:16;;;;;;;14.25;7.97;;;22.00;52.20;;;;;;5091855;28;20053;-77
2023/01/22 06:30:43;;;;;;;10.65;7.97;;;22.00;52.10;;;;;;5091298;28;20048;-77
2023/01/22 06:33:09;;;;;;;13.07;8.30;;;21.90;49.20;;;;;;5091578;28;20099;-74
2023/01/22 06:35:35;;;;;;;14.00;9.00;;;22.00;48.20;;;;;;5092763;28;20382;-73
2023/01/22 06:38:01;;;;;;;12.27;7.30;;;22.00;46.90;;;;;;5092621;28;20024;-75
2023/01/22 06:40:31;;;;;;;8.27;5.45;;;21.90;46.80;;;;;;5074724;28;20266;-74
2023/01/22 06:43:02;;;;;;;7.72;5.15;;;21.80;46.40;;;;;;5091069;28;20401;-72
2023/01/22 06:45:28;;;;;;;9.18;4.85;;;22.00;58.20;;;;;;5091239;28;20055;-74
2023/01/22 06:47:59;;;;;;;12.73;8.10;;;22.10;60.70;;;;;;5091922;28;20035;-75
2023/01/22 06:50:25;;;;;;;11.82;7.63;;;22.20;60.80;;;;;;5092374;28;20061;-74
2023/01/22 06:52:51;;;;;;;10.65;7.68;;;22.10;60.40;;;;;;5091969;28;20032;-74
2023/01/22 06:55:17;;;;;;;11.73;8.35;;;22.00;60.90;;;;;;5092723;28;20129;-75
2023/01/22 06:57:43;;;;;;;8.63;5.20;;;21.90;61.70;;;;;;5091228;28;20141;-76
2023/01/22 07:00:10;;;;;;;7.38;5.00;;;22.00;64.90;;;;;;5090391;28;20036;-72
2023/01/22 07:02:35;;;;;;;8.35;5.13;;;22.00;63.20;;;;;;5072673;28;20120;-76
2023/01/22 07:05:01;;;;;;;7.90;4.70;;;22.20;62.20;;;;;;5092420;28;20123;-76
2023/01/22 07:07:27;;;;;;;6.07;4.13;;;22.20;58.60;;;;;;5092164;28;20020;-74
2023/01/22 07:09:53;;;;;;;3.85;2.70;;;22.20;58.60;;;;;;5092322;28;20044;-75
2023/01/22 07:12:19;;;;;;;7.18;3.78;;;22.00;58.40;;;;;;5091180;28;20043;-76
2023/01/22 07:14:46;;;;;;;7.40;4.30;;;22.10;58.50;;;;;;5091870;28;20054;-75
2023/01/22 07:17:12;;;;;;;5.95;4.18;;;22.30;58.10;;;;;;5091240;28;20024;-78
2023/01/22 07:19:38;;;;;;;5.35;3.50;;;22.20;56.50;;;;;;5091968;28;20050;-76
2023/01/22 07:22:04;;;;;;;6.57;3.25;;;22.30;56.90;;;;;;5092123;28;20024;-75
2023/01/22 07:24:30;;;;;;;4.72;3.85;;;22.20;57.00;;;;;;5090885;28;20028;-74
2023/01/22 07:26:56;;;;;;;8.35;3.58;;;22.10;57.50;;;;;;5092194;28;20024;-75
2023/01/22 07:29:22;;;;;;;4.07;3.67;;;22.10;56.50;;;;;;5091666;28;20034;-72
2023/01/22 07:31:48;;;;;;;8.15;3.90;;;22.00;57.60;;;;;;5091717;28;20034;-73
2023/01/22 07:34:14;;;;;;;5.22;4.20;;;22.00;57.80;;;;;;5091555;28;20036;-71
2023/01/22 07:36:40;;;;;;;11.30;4.90;;;22.00;58.60;;;;;;5091571;28;20115;-72
2023/01/22 07:39:06;;;;;;;4.30;3.35;;;22.00;58.20;;;;;;5092091;28;20148;-71
2023/01/22 07:41:32;;;;;;;4.78;3.45;;;22.30;58.30;;;;;;5091875;28;20028;-73
2023/01/22 07:43:59;;;;;;;3.13;1.80;;;22.20;58.30;;;;;;5091827;28;20028;-74
2023/01/22 07:46:26;;;;;;;4.55;3.20;;;22.40;58.10;;;;;;5091628;28;20500;-74
2023/01/22 07:48:52;;;;;;;3.67;2.70;;;22.40;57.90;;;;;;5091613;28;20483;-73
2023/01/22 07:51:18;;;;;;;3.70;2.95;;;22.40;57.40;;;;;;5095615;28;20019;-73
2023/01/22 07:53:44;;;;;;;4.82;3.75;;;22.40;56.10;;;;;;5094786;28;20111;-73
2023/01/22 07:56:11;;;;;;;7.45;3.92;;;22.40;57.10;;;;;;5093198;28;20028;-73
2023/01/22 07:58:38;;;;;;;4.45;3.65;;;22.40;57.10;;;;;;5095762;28;20070;-72
2023/01/22 08:01:05;;;;;;;6.22;3.30;;;22.60;57.30;;;;;;5096288;28;20392;-72
2023/01/22 08:03:32;;;;;;;4.97;3.47;;;22.50;57.30;;;;;;5089825;28;20461;-74
2023/01/22 08:05:59;;;;;;;3.20;2.90;;;22.50;57.50;;;;;;5090900;28;20090;-77
2023/01/22 08:08:26;;;;;;;5.22;3.05;;;22.60;57.40;;;;;;5107414;28;20135;-75
2023/01/22 08:10:52;;;;;;;6.28;3.08;;;22.60;57.30;;;;;;5111535;28;20503;-75
2023/01/22 08:13:18;;;;;;;3.50;2.45;;;22.80;57.40;;;;;;5097631;28;20032;-72
2023/01/22 08:15:44;;;;;;;6.40;4.28;;;22.70;57.00;;;;;;5091286;28;20040;-73
2023/01/22 08:18:11;;;;;;;5.43;3.03;;;22.60;55.80;;;;;;5090037;28;20103;-73
2023/01/22 08:20:37;;;;;;;5.28;3.50;;;22.70;57.00;;;;;;5091328;28;20042;-75
2023/01/22 08:23:03;;;;;;;3.58;2.78;;;22.70;56.90;;;;;;5090100;28;20039;-74
2023/01/22 08:25:29;;;;;;;3.80;3.13;;;22.70;57.10;;;;;;5091376;28;20032;-72
2023/01/22 08:27:55;;;;;;;6.72;3.38;;;22.70;55.40;;;;;;5091327;28;20032;-73
2023/01/22 08:30:21;;;;;;;8.60;4.20;;;22.70;56.20;;;;;;5073233;28;20024;-78
2023/01/22 08:32:49;;;;;;;6.25;2.88;;;22.60;54.90;;;;;;5091212;28;20051;-72
2023/01/22 08:35:15;;;;;;;5.47;3.00;;;22.60;53.50;;;;;;5091310;28;20067;-73
2023/01/22 08:37:42;;;;;;;3.92;2.88;;;22.60;55.50;;;;;;5091352;28;20127;-73
2023/01/22 08:40:10;;;;;;;5.00;2.92;;;22.60;53.30;;;;;;5090890;28;20047;-74
2023/01/22 08:42:37;;;;;;;6.53;4.15;;;22.50;55.10;;;;;;5094848;28;20028;-75
2023/01/22 08:45:03;;;;;;;5.35;3.90;;;22.70;57.50;;;;;;5095028;28;20469;-75
2023/01/22 08:47:29;;;;;;;7.05;3.63;;;22.80;55.80;;;;;;5095013;28;20468;-80
2023/01/22 08:49:56;;;;;;;6.57;4.43;;;23.00;55.80;;;;;;5092394;28;20040;-81
2023/01/22 08:52:22;;;;;;;5.30;3.28;;;23.20;56.80;;;;;;5092255;28;20496;-76
2023/01/22 08:54:48;;;;;;;5.40;3.67;;;23.30;59.00;;;;;;5085836;28;20517;-75
2023/01/22 08:57:15;;;;;;;4.75;3.38;;;23.10;48.30;;;;;;5055107;28;20044;-75
2023/01/22 08:59:40;;;;;;;3.47;2.78;;;23.10;50.70;;;;;;5072036;28;20550;-76
2023/01/22 09:02:12;;;;;;;4.65;3.63;;;22.90;54.60;;;;;;5071905;28;20040;-75
2023/01/22 09:04:38;;;;;;;4.47;2.97;;;23.00;56.90;;;;;;5072099;28;20107;-80
2023/01/22 09:07:04;;;;;;;6.43;3.67;;;22.90;53.20;;;;;;5071998;28;20040;-79
2023/01/22 09:09:30;;;;;;;5.13;3.25;;;23.00;54.30;;;;;;5071521;28;20076;-81
2023/01/22 09:11:56;;;;;;;4.25;2.90;;;22.90;57.80;;;;;;5072146;28;20125;-77
2023/01/22 09:14:22;;;;;;;4.10;2.80;;;23.00;58.90;;;;;;5071432;28;20182;-75
2023/01/22 09:16:48;;;;;;;4.30;2.80;;;23.00;58.70;;;;;;5071927;28;20503;-76
2023/01/22 09:19:14;;;;;;;5.90;3.65;;;23.10;58.60;;;;;;5054881;28;20127;-76
2023/01/22 09:21:40;;;;;;;3.95;3.55;;;23.10;56.90;;;;;;5071691;28;20097;-76
2023/01/22 09:24:07;;;;;;;4.22;3.30;;;23.20;53.90;;;;;;5071325;28;20041;-77
2023/01/22 09:26:35;;;;;;;5.18;2.80;;;23.10;57.70;;;;;;5075260;28;20044;-76
2023/01/22 09:29:04;;;;;;;5.40;3.00;;;23.10;58.70;;;;;;5094384;28;20433;-75
2023/01/22 09:31:32;;;;;;;3.95;2.83;;;23.10;55.50;;;;;;5094575;28;20536;-77
2023/01/22 09:33:59;;;;;;;6.80;3.08;;;23.10;56.00;;;;;;5094246;28;20046;-77
2023/01/22 09:36:25;;;;;;;6.07;3.45;;;23.20;56.40;;;;;;5094308;28;20107;-76
2023/01/22 09:38:51;;;;;;;4.80;3.30;;;23.20;56.80;;;;;;5094220;28;20435;-79
2023/01/22 09:41:29;;;;;;;6.90;3.38;;;23.20;59.40;;;;;;5094128;28;20024;-80
2023/01/22 09:44:00;;;;;;;6.95;2.78;;;23.30;58.90;;;;;;5093246;28;20036;-75
2023/01/22 09:46:50;;;;;;;4.55;3.40;;;23.30;59.00;;;;;;5093995;28;20479;-73
2023/01/22 09:49:17;;;;;;;4.75;3.30;;;23.30;64.50;;;;;;5093985;28;20056;-77
2023/01/22 09:51:55;;;;;;;29.90;12.15;;;23.70;64.10;;;;;;5093564;28;20027;-77
2023/01/22 09:54:22;;;;;;;24.70;8.80;;;23.90;64.80;;;;;;5093847;28;20039;-75
2023/01/22 09:56:54;;;;;;;10.02;6.93;;;24.10;62.20;;;;;;5094032;28;20042;-72
2023/01/22 09:59:33;;;;;;;26.90;8.45;;;24.30;62.30;;;;;;5093623;28;20051;-76
2023/01/22 10:02:19;;;;;;;18.80;6.65;;;24.30;54.50;;;;;;5093602;28;20032;-80
2023/01/22 10:04:46;;;;;;;11.13;4.88;;;24.50;51.00;;;;;;5092255;28;20081;-76
2023/01/22 10:07:22;;;;;;;5.75;3.38;;;24.60;56.70;;;;;;5093635;28;20038;-78
2023/01/22 10:09:55;;;;;;;9.25;4.95;;;24.50;57.90;;;;;;5092995;28;20105;-78
2023/01/22 10:12:21;;;;;;;;;;;24.50;58.10;;;;;;5074808;28;20159;-77
2023/01/22 10:14:50;;;;;;;6.35;4.35;;;24.50;58.30;;;;;;5092790;28;20003;-76
2023/01/22 10:17:21;;;;;;;6.25;4.32;;;24.50;58.70;;;;;;5093471;28;20043;-79
2023/01/22 10:19:52;;;;;;;6.10;3.33;;;24.40;58.90;;;;;;5093204;28;20706;-74
2023/01/22 10:22:24;;;;;;;8.00;4.35;;;24.50;59.20;;;;;;5093153;28;20055;-77
2023/01/22 10:24:51;;;;;;;16.48;6.55;;;24.50;61.20;;;;;;5092819;28;20059;-80
2023/01/22 10:27:32;;;;;;;6.03;3.97;;;24.70;59.80;;;;;;5092913;28;20062;-75
2023/01/22 10:30:34;;;;;;;11.63;4.93;;;24.90;50.10;;;;;;5092599;28;20063;-78
2023/01/22 10:33:05;;;;;;;13.13;4.10;;;24.80;48.60;;;;;;5050279;28;20049;-77
2023/01/22 10:35:52;;;;;;;6.90;3.47;;;24.80;48.50;;;;;;5033826;28;20505;-78
2023/01/22 10:38:27;;;;;;;9.93;3.67;;;24.90;52.60;;;;;;5050235;28;20504;-78
2023/01/22 10:40:56;;;;;;;5.70;3.67;;;25.00;55.70;;;;;;5049949;28;20033;-77
2023/01/22 10:43:28;;;;;;;6.32;4.20;;;24.90;56.70;;;;;;5049897;28;20049;-77
2023/01/22 10:46:00;;;;;;;10.68;5.18;;;24.80;56.10;;;;;;5049875;28;20094;-77
2023/01/22 10:48:26;;;;;;;7.03;4.78;;;24.80;57.00;;;;;;5050200;28;20040;-82
2023/01/22 10:51:26;;;;;;;11.00;5.15;;;24.80;56.80;;;;;;5049925;28;20142;-79
2023/01/22 10:53:54;;;;;;;11.02;4.80;;;24.70;57.00;;;;;;4970950;28;20042;-76
2023/01/22 10:56:29;;;;;;;7.20;4.95;;;24.70;57.70;;;;;;4971236;28;20155;-78
2023/01/22 10:58:56;;;;;;;11.35;5.72;;;24.70;57.70;;;;;;4971023;28;20502;-79
2023/01/22 11:01:31;;;;;;;9.85;4.70;;;24.60;57.60;;;;;;4971101;28;20038;-77
2023/01/22 11:03:57;;;;;;;7.88;4.72;;;24.70;57.70;;;;;;4969855;28;20505;-77
2023/01/22 11:06:34;;;;;;;6.78;4.50;;;24.70;57.20;;;;;;4955082;28;20403;-72
2023/01/22 11:09:35;;;;;;;7.88;4.10;;;24.60;55.90;;;;;;4990971;28;20053;-75
2023/01/22 11:12:21;;;;;;;10.48;4.45;;;24.70;59.80;;;;;;5029041;28;20052;-74
2023/01/22 11:15:05;;;;;;;7.65;4.63;;;25.20;63.40;;;;;;5029835;28;20056;-78
2023/01/22 11:17:41;;;;;;;7.07;4.45;;;25.50;66.30;;;;;;5029230;28;20096;-74
2023/01/22 11:20:48;;;;;;;6.93;4.22;;;25.60;68.20;;;;;;5009803;28;20038;-73
2023/01/22 11:23:35;;;;;;;5.95;3.78;;;25.50;64.10;;;;;;4932413;29;20126;-78
2023/01/22 11:26:22;;;;;;;3.83;3.38;;;25.60;64.90;;;;;;4932421;29;20559;-78
2023/01/22 11:29:08;;;;;;;3.88;3.35;;;25.60;67.70;;;;;;4932165;29;20054;-76
2023/01/22 11:31:49;;;;;;;7.18;3.92;;;25.70;70.70;;;;;;4970667;28;20121;-75
2023/01/22 11:34:42;;;;;;;6.53;3.92;;;25.90;70.80;;;;;;4970431;28;20066;-75
2023/01/22 11:37:25;;;;;;;10.38;4.97;;;26.00;68.30;;;;;;4954604;28;20101;-74
2023/01/22 11:39:57;;;;;;;;;;;25.90;61.50;;;;;;4971105;28;20047;-74
2023/01/22 11:42:42;;;;;;;5.95;4.40;;;25.70;61.00;;;;;;4924993;28;19911;-76
2023/01/22 11:45:27;;;;;;;5.85;3.67;;;25.60;60.00;;;;;;4935008;29;20496;-74
2023/01/22 11:48:05;;;;;;;6.40;4.15;;;25.60;60.00;;;;;;4951051;28;20416;-74
2023/01/22 11:51:01;;;;;;;5.80;3.70;;;25.30;59.90;;;;;;4950945;28;20105;-74
2023/01/22 11:53:50;;;;;;;6.20;4.10;;;25.40;60.00;;;;;;4913083;29;20131;-74
2023/01/22 11:56:23;;;;;;;5.00;3.95;;;25.40;60.20;;;;;;4908808;29;20099;-75
2023/01/22 11:58:55;;;;;;;8.18;3.90;;;25.30;60.20;;;;;;4894047;29;20048;-74
2023/01/22 12:01:22;;;;;;;5.72;3.75;;;25.30;60.30;;;;;;4950946;28;20039;-75
2023/01/22 12:04:10;;;;;;;8.02;4.50;;;25.20;60.40;;;;;;4931419;29;20050;-76
2023/01/22 12:06:57;;;;;;;10.95;4.97;;;25.30;60.70;;;;;;4916004;29;20048;-75
2023/01/22 12:09:55;;;;;;;6.40;3.88;;;25.30;60.80;;;;;;4945875;29;20051;-76
2023/01/22 12:12:32;;;;;;;6.28;3.85;;;25.10;60.70;;;;;;4931413;29;20050;-75
2023/01/22 12:15:33;;;;;;;7.50;3.97;;;25.10;60.80;;;;;;4946848;28;20093;-76
2023/01/22 12:18:19;;;;;;;6.10;4.25;;;25.30;60.80;;;;;;4976422;28;20043;-76
2023/01/22 12:21:07;;;;;;;4.07;3.08;;;25.10;60.90;;;;;;4976569;28;20110;-75
2023/01/22 12:23:51;;;;;;;6.80;3.90;;;25.00;61.00;;;;;;4976550;28;20514;-78
2023/01/22 12:26:31;;;;;;;8.30;4.50;;;25.10;60.80;;;;;;4961793;28;20042;-74
2023/01/22 12:29:09;;;;;;;12.05;4.45;;;25.10;60.90;;;;;;4957158;29;20054;-77
2023/01/22 12:31:42;;;;;;;5.38;3.55;;;25.00;60.90;;;;;;5095309;28;20044;-75
2023/01/22 12:34:14;;;;;;;;;;;25.00;61.00;;;;;;5092403;28;20055;-73
2023/01/22 12:36:40;;;;;;;6.65;4.00;;;25.00;61.00;;;;;;5076531;28;19912;-75
2023/01/22 12:39:24;;;;;;;5.00;3.50;;;24.90;61.10;;;;;;5077093;28;20028;-74
2023/01/22 12:42:05;;;;;;;5.03;3.63;;;25.00;61.20;;;;;;5076688;28;20036;-73
2023/01/22 12:44:49;;;;;;;5.22;3.17;;;25.00;60.90;;;;;;5077222;28;20043;-74
2023/01/22 12:47:21;;;;;;;4.85;3.47;;;24.90;60.90;;;;;;5077176;28;20472;-77
2023/01/22 12:49:50;;;;;;;6.13;3.38;;;25.00;60.80;;;;;;5076920;28;20078;-72
2023/01/22 12:52:36;;;;;;;4.63;3.45;;;24.90;60.90;;;;;;5077019;28;20039;-73
2023/01/22 12:55:41;;;;;;;6.47;3.97;;;24.90;62.80;;;;;;5077474;28;20032;-71
2023/01/22 12:58:25;;;;;;;10.35;4.10;;;24.90;63.30;;;;;;5076294;28;20504;-71
2023/01/22 13:01:10;;;;;;;6.65;3.75;;;25.00;62.80;;;;;;5059044;28;20446;-72
2023/01/22 13:03:38;;;;;;;5.85;3.70;;;24.90;62.30;;;;;;5096711;28;20637;-72